Time;durP1;ratioP1;P1;durP2;ratioP2;P2;SDS_P1;SDS_P2;PMS_P1;PMS_P2;Temp;Humidity;BMP_temperature;BMP_pressure;BME280_temperature;BME280_humidity;BME280_pressure;Samples;Min_cycle;Max_cycle;Signal;HPM_P1;HPM_P2
2021/10/18 00:01:12;;;;;;;;;;;;;;;;;;5054514;28;19913;-81
2021/10/18 00:03:37;;;;;;;;;;;;;;;;;;5054295;28;19965;-81
2021/10/18 00:06:03;;;;;;;;;;;;;;;;;;5054828;28;19912;-81
2021/10/18 00:08:28;;;;;;;;;;;;;;;;;;5053851;28;19966;-81
2021/10/18 00:10:53;;;;;;;;;;;;;;;;;;5037129;28;19920;-81
2021/10/18 00:13:19;;;;;;;;;;;;;;;;;;5054241;28;20354;-81
2021/10/18 00:15:44;;;;;;;;;;;;;;;;;;5037746;28;19966;-81
2021/10/18 00:18:09;;;;;;;;;;;;;;;;;;5053101;28;19916;-81
2021/10/18 00:20:35;;;;;;;;;;;;;;;;;;5037658;28;19912;-81
2021/10/18 00:23:00;;;;;;;;;;;;;;;;;;5037273;28;20370;-81
2021/10/18 00:25:25;;;;;;;;;;;;;;;;;;5070628;28;19920;-81
2021/10/18 00:27:51;;;;;;;;;;;;;;;;;;5054203;28;20270;-81
2021/10/18 00:30:16;;;;;;;;;;;;;;;;;;5061480;28;19912;-81
2021/10/18 00:32:41;;;;;;;;;;;;;;;;;;5090536;28;20289;-81
2021/10/18 00:35:07;;;;;;;;;;;;;;;;;;5074455;28;19916;-81
2021/10/18 00:37:32;;;;;;;;;;;;;;;;;;5090767;28;19916;-81
2021/10/18 00:39:57;;;;;;;;;;;;;;;;;;5056925;28;20333;-81
2021/10/18 00:42:23;;;;;;;;;;;;;;;;;;5090803;28;19916;-81
2021/10/18 00:44:50;;;;;;;;;;;;;;;;;;5089225;28;19920;-80
2021/10/18 00:47:20;;;;;;;;;;;;;;;;;;5073614;28;20391;-81
2021/10/18 00:49:45;;;;;;;;;;;;;;;;;;5090712;28;20319;-81
2021/10/18 00:52:11;;;;;;;;;;;;;;;;;;5073807;28;19912;-81
2021/10/18 00:54:36;;;;;;;;;;;;;;;;;;5056724;28;19919;-80
2021/10/18 00:57:01;;;;;;;;;;;;;;;;;;5090521;28;20368;-81
2021/10/18 00:59:27;;;;;;;;;;;;;;;;;;5073802;28;19961;-81
2021/10/18 01:01:52;;;;;;;;;;;;;;;;;;5073367;28;20011;-81
2021/10/18 01:04:17;;;;;;;;;;;;;;;;;;5073966;28;20366;-81
2021/10/18 01:06:43;;;;;;;;;;;;;;;;;;5074240;28;19923;-81
2021/10/18 01:09:08;;;;;;;;;;;;;;;;;;5073553;28;20440;-81
2021/10/18 01:11:33;;;;;;;;;;;;;;;;;;5069594;28;19924;-81
2021/10/18 01:13:59;;;;;;;;;;;;;;;;;;5053288;28;19916;-81
2021/10/18 01:16:24;;;;;;;;;;;;;;;;;;5053301;28;19912;-81
2021/10/18 01:18:49;;;;;;;;;;;;;;;;;;5065458;28;19946;-81
2021/10/18 01:21:15;;;;;;;;;;;;;;;;;;5074347;28;19920;-81
2021/10/18 01:23:40;;;;;;;;;;;;;;;;;;5077181;28;19954;-81
2021/10/18 01:26:05;;;;;;;;;;;;;;;;;;5060112;28;19919;-81
2021/10/18 01:28:31;;;;;;;;;;;;;;;;;;5076937;28;19912;-80
2021/10/18 01:30:56;;;;;;;;;;;;;;;;;;5073506;28;19919;-81
2021/10/18 01:33:21;;;;;;;;;;;;;;;;;;5056948;28;19916;-81
2021/10/18 01:35:47;;;;;;;;;;;;;;;;;;5058431;28;19963;-81
2021/10/18 01:38:12;;;;;;;;;;;;;;;;;;5093404;28;20019;-81
2021/10/18 01:40:37;;;;;;;;;;;;;;;;;;5056283;28;20282;-81
2021/10/18 01:43:03;;;;;;;;;;;;;;;;;;5059900;28;19920;-81
2021/10/18 01:45:28;;;;;;;;;;;;;;;;;;5073089;28;20057;-81
2021/10/18 01:47:53;;;;;;;;;;;;;;;;;;5056552;28;19916;-81
2021/10/18 01:50:20;;;;;;;;;;;;;;;;;;5073364;28;19917;-81
2021/10/18 01:52:46;;;;;;;;;;;;;;;;;;5073558;28;19924;-81
2021/10/18 01:55:11;;;;;;;;;;;;;;;;;;5056224;28;19935;-81
2021/10/18 01:57:38;;;;;;;;;;;;;;;;;;5064384;28;19920;-81
2021/10/18 02:00:03;;;;;;;;;;;;;;;;;;5059215;28;19912;-81
2021/10/18 02:02:28;;;;;;;;;;;;;;;;;;5076845;28;20407;-80
2021/10/18 02:04:54;;;;;;;;;;;;;;;;;;5082453;28;20390;-81
2021/10/18 02:07:19;;;;;;;;;;;;;;;;;;5073405;28;19916;-81
2021/10/18 02:09:44;;;;;;;;;;;;;;;;;;5055977;28;20390;-80
2021/10/18 02:12:10;;;;;;;;;;;;;;;;;;5039381;28;19924;-82
2021/10/18 02:14:35;;;;;;;;;;;;;;;;;;5055669;28;19920;-81
2021/10/18 02:17:00;;;;;;;;;;;;;;;;;;5056036;28;19927;-80
2021/10/18 02:19:26;;;;;;;;;;;;;;;;;;5056794;28;19912;-81
2021/10/18 02:21:51;;;;;;;;;;;;;;;;;;5093168;28;19999;-80
2021/10/18 02:24:16;;;;;;;;;;;;;;;;;;5071843;28;20087;-81
2021/10/18 02:26:42;;;;;;;;;;;;;;;;;;5039006;28;19913;-80
2021/10/18 02:29:09;;;;;;;;;;;;;;;;;;5055647;28;19912;-80
2021/10/18 02:31:34;;;;;;;;;;;;;;;;;;5053532;28;20034;-80
2021/10/18 02:33:59;;;;;;;;;;;;;;;;;;5071932;28;19999;-80
2021/10/18 02:36:25;;;;;;;;;;;;;;;;;;5055776;28;20001;-80
2021/10/18 02:38:50;;;;;;;;;;;;;;;;;;5072264;28;20006;-80
2021/10/18 02:41:15;;;;;;;;;;;;;;;;;;5072542;28;19920;-80
2021/10/18 02:43:41;;;;;;;;;;;;;;;;;;5091090;28;19978;-80
2021/10/18 02:46:06;;;;;;;;;;;;;;;;;;5075635;28;19965;-80
2021/10/18 02:48:31;;;;;;;;;;;;;;;;;;5074865;28;19919;-81
2021/10/18 02:50:57;;;;;;;;;;;;;;;;;;5075853;28;20353;-81
2021/10/18 02:53:22;;;;;;;;;;;;;;;;;;5075322;28;19912;-80
2021/10/18 02:55:47;;;;;;;;;;;;;;;;;;5075375;28;19912;-80
2021/10/18 02:58:13;;;;;;;;;;;;;;;;;;5057894;28;20362;-80
2021/10/18 03:00:38;;;;;;;;;;;;;;;;;;5075388;28;19967;-81
2021/10/18 03:03:07;;;;;;;;;;;;;;;;;;5054694;28;19923;-80
2021/10/18 03:05:32;;;;;;;;;;;;;;;;;;5072028;28;19912;-81
2021/10/18 03:07:57;;;;;;;;;;;;;;;;;;5054882;28;20378;-81
2021/10/18 03:10:22;;;;;;;;;;;;;;;;;;5074839;28;20011;-80
2021/10/18 03:12:48;;;;;;;;;;;;;;;;;;5091410;28;19908;-81
2021/10/18 03:15:13;;;;;;;;;;;;;;;;;;5075007;28;19920;-81
2021/10/18 03:17:39;;;;;;;;;;;;;;;;;;5074699;28;19922;-80
2021/10/18 03:20:05;;;;;;;;;;;;;;;;;;5074908;28;20286;-81
2021/10/18 03:22:30;;;;;;;;;;;;;;;;;;5074888;28;19916;-80
2021/10/18 03:24:55;;;;;;;;;;;;;;;;;;5058234;28;19912;-80
2021/10/18 03:27:21;;;;;;;;;;;;;;;;;;5087402;28;19924;-80
2021/10/18 03:29:47;;;;;;;;;;;;;;;;;;5048274;28;20006;-80
2021/10/18 03:32:12;;;;;;;;;;;;;;;;;;5075220;28;19912;-81
2021/10/18 03:34:37;;;;;;;;;;;;;;;;;;5074756;28;19913;-80
2021/10/18 03:37:03;;;;;;;;;;;;;;;;;;5070561;28;19970;-81
2021/10/18 03:39:28;;;;;;;;;;;;;;;;;;5037605;28;19928;-80
2021/10/18 03:41:53;;;;;;;;;;;;;;;;;;5054268;28;20413;-81
2021/10/18 03:44:18;;;;;;;;;;;;;;;;;;5053831;28;20441;-81
2021/10/18 03:46:44;;;;;;;;;;;;;;;;;;5037695;28;19920;-81
2021/10/18 03:49:09;;;;;;;;;;;;;;;;;;5047938;28;19917;-81
2021/10/18 03:51:34;;;;;;;;;;;;;;;;;;5088076;28;19970;-80
2021/10/18 03:54:00;;;;;;;;;;;;;;;;;;5088132;28;19923;-80
2021/10/18 03:56:25;;;;;;;;;;;;;;;;;;5087067;28;19916;-79
2021/10/18 03:58:50;;;;;;;;;;;;;;;;;;5070313;28;19913;-79
2021/10/18 04:01:15;;;;;;;;;;;;;;;;;;5070864;28;19912;-80
2021/10/18 04:03:41;;;;;;;;;;;;;;;;;;5070947;28;20387;-81
2021/10/18 04:06:06;;;;;;;;;;;;;;;;;;5087796;28;19912;-80
2021/10/18 04:08:32;;;;;;;;;;;;;;;;;;5087576;28;19916;-79
2021/10/18 04:10:58;;;;;;;;;;;;;;;;;;5087597;28;20321;-79
2021/10/18 04:13:24;;;;;;;;;;;;;;;;;;5087669;28;20720;-79
2021/10/18 04:15:50;;;;;;;;;;;;;;;;;;5071134;28;19923;-79
2021/10/18 04:18:15;;;;;;;;;;;;;;;;;;5082787;28;19920;-79
2021/10/18 04:20:40;;;;;;;;;;;;;;;;;;5070994;28;20004;-80
2021/10/18 04:23:06;;;;;;;;;;;;;;;;;;5086567;28;19912;-80
2021/10/18 04:25:31;;;;;;;;;;;;;;;;;;5090978;28;19912;-79
2021/10/18 04:27:56;;;;;;;;;;;;;;;;;;5069390;28;19940;-80
2021/10/18 04:30:23;;;;;;;;;;;;;;;;;;5042123;28;19994;-80
2021/10/18 04:32:48;;;;;;;;;;;;;;;;;;5037372;28;20377;-80
2021/10/18 04:35:13;;;;;;;;;;;;;;;;;;5054047;28;19912;-80
2021/10/18 04:37:38;;;;;;;;;;;;;;;;;;5070109;28;19946;-80
2021/10/18 04:40:04;;;;;;;;;;;;;;;;;;5070524;28;19920;-80
2021/10/18 04:42:29;;;;;;;;;;;;;;;;;;5073530;28;19915;-80
2021/10/18 04:44:55;;;;;;;;;;;;;;;;;;5074044;28;19919;-80
2021/10/18 04:47:20;;;;;;;;;;;;;;;;;;5073849;28;19923;-80
2021/10/18 04:49:46;;;;;;;;;;;;;;;;;;5057251;28;19912;-81
2021/10/18 04:52:11;;;;;;;;;;;;;;;;;;5073860;28;19919;-81
2021/10/18 04:54:37;;;;;;;;;;;;;;;;;;5043575;28;20294;-80
2021/10/18 04:57:03;;;;;;;;;;;;;;;;;;5053504;28;20015;-80
2021/10/18 04:59:28;;;;;;;;;;;;;;;;;;5091948;28;19916;-81
2021/10/18 05:01:53;;;;;;;;;;;;;;;;;;5071039;28;20654;-80
2021/10/18 05:04:18;;;;;;;;;;;;;;;;;;5040867;28;19916;-80
2021/10/18 05:06:44;;;;;;;;;;;;;;;;;;5066991;28;19928;-81
2021/10/18 05:09:09;;;;;;;;;;;;;;;;;;5073940;28;19921;-81
2021/10/18 05:11:35;;;;;;;;;;;;;;;;;;5073509;28;19923;-81
2021/10/18 05:14:00;;;;;;;;;;;;;;;;;;5073913;28;19999;-81
2021/10/18 05:16:26;;;;;;;;;;;;;;;;;;5089036;28;20003;-81
2021/10/18 05:18:51;;;;;;;;;;;;;;;;;;5095637;28;20370;-81
2021/10/18 05:21:18;;;;;;;;;;;;;;;;;;5091063;28;19936;-88
2021/10/18 05:23:43;;;;;;;;;;;;;;;;;;5074388;28;19916;-87
2021/10/18 05:26:08;;;;;;;;;;;;;;;;;;5072823;28;19982;-87
2021/10/18 05:28:34;;;;;;;;;;;;;;;;;;5076236;28;19999;-85
2021/10/18 05:30:59;;;;;;;;;;;;;;;;;;5056490;28;19927;-83
2021/10/18 05:33:24;;;;;;;;;;;;;;;;;;5058723;28;20374;-83
2021/10/18 05:35:51;;;;;;;;;;;;;;;;;;5058609;28;19920;-83
2021/10/18 05:38:17;;;;;;;;;;;;;;;;;;5058335;28;19912;-84
2021/10/18 05:40:43;;;;;;;;;;;;;;;;;;5074492;28;19920;-83
2021/10/18 05:43:08;;;;;;;;;;;;;;;;;;5050785;28;19961;-83
2021/10/18 05:45:34;;;;;;;;;;;;;;;;;;5054800;28;20035;-83
2021/10/18 05:48:00;;;;;;;;;;;;;;;;;;5055221;28;19912;-83
2021/10/18 05:50:36;;;;;;;;;;;;;;;;;;5082825;28;19916;-83
2021/10/18 05:53:01;;;;;;;;;;;;;;;;;;5092056;28;19954;-83
2021/10/18 05:55:27;;;;;;;;;;;;;;;;;;5043459;28;19956;-82
2021/10/18 05:57:53;;;;;;;;;;;;;;;;;;5054896;28;19947;-82
2021/10/18 06:00:18;;;;;;;;;;;;;;;;;;5058927;28;19917;-82
2021/10/18 06:02:44;;;;;;;;;;;;;;;;;;5072537;28;19928;-83
2021/10/18 06:05:09;;;;;;;;;;;;;;;;;;5058317;28;20011;-82
2021/10/18 06:07:35;;;;;;;;;;;;;;;;;;5067161;28;19916;-82
2021/10/18 06:10:00;;;;;;;;;;;;;;;;;;5039619;28;19935;-83
2021/10/18 06:12:25;;;;;;;;;;;;;;;;;;5064198;28;19980;-82
2021/10/18 06:14:51;;;;;;;;;;;;;;;;;;5076314;28;19919;-83
2021/10/18 06:17:16;;;;;;;;;;;;;;;;;;5075999;28;19919;-83
2021/10/18 06:19:41;;;;;;;;;;;;;;;;;;5072332;28;19920;-83
2021/10/18 06:22:07;;;;;;;;;;;;;;;;;;5039192;28;19912;-83
2021/10/18 06:24:32;;;;;;;;;;;;;;;;;;5072710;28;19916;-85
2021/10/18 06:26:58;;;;;;;;;;;;;;;;;;5057699;28;20320;-84
2021/10/18 06:29:25;;;;;;;;;;;;;;;;;;5075061;28;19959;-84
2021/10/18 06:31:52;;;;;;;;;;;;;;;;;;5066998;28;19924;-84
2021/10/18 06:34:18;;;;;;;;;;;;;;;;;;5072430;28;19912;-85
2021/10/18 06:36:44;;;;;;;;;;;;;;;;;;5055494;28;19923;-85
2021/10/18 06:39:09;;;;;;;;;;;;;;;;;;5055679;28;19921;-85
2021/10/18 06:41:35;;;;;;;;;;;;;;;;;;5055360;28;19921;-85
2021/10/18 06:44:02;;;;;;;;;;;;;;;;;;5055825;28;19916;-85
2021/10/18 06:46:27;;;;;;;;;;;;;;;;;;5039095;28;20423;-85
2021/10/18 06:48:53;;;;;;;;;;;;;;;;;;5041052;28;19916;-85
2021/10/18 06:51:19;;;;;;;;;;;;;;;;;;5046300;28;19924;-85
2021/10/18 06:53:51;;;;;;;;;;;;;;;;;;5055638;28;19916;-85
2021/10/18 06:56:16;;;;;;;;;;;;;;;;;;5059587;28;20366;-86
2021/10/18 06:58:42;;;;;;;;;;;;;;;;;;5043884;28;19919;-85
2021/10/18 07:01:08;;;;;;;;;;;;;;;;;;5055634;28;19935;-85
2021/10/18 07:03:34;;;;;;;;;;;;;;;;;;5055262;28;19912;-86
2021/10/18 07:06:01;;;;;;;;;;;;;;;;;;5055580;28;19916;-86
2021/10/18 07:08:27;;;;;;;;;;;;;;;;;;5058641;28;19920;-85
2021/10/18 07:10:53;;;;;;;;;;;;;;;;;;5073644;28;19928;-86
2021/10/18 07:13:18;;;;;;;;;;;;;;;;;;5058530;28;20370;-86
2021/10/18 07:15:44;;;;;;;;;;;;;;;;;;5058260;28;19978;-85
2021/10/18 07:18:09;;;;;;;;;;;;;;;;;;5049703;28;19921;-85
2021/10/18 07:20:35;;;;;;;;;;;;;;;;;;5070144;28;19917;-85
2021/10/18 07:23:06;;;;;;;;;;;;;;;;;;5055009;28;19919;-85
2021/10/18 07:25:32;;;;;;;;;;;;;;;;;;5071192;28;19962;-85
2021/10/18 07:27:58;;;;;;;;;;;;;;;;;;5071314;28;19999;-85
2021/10/18 07:30:25;;;;;;;;;;;;;;;;;;5071435;28;19912;-86
2021/10/18 07:32:50;;;;;;;;;;;;;;;;;;5088635;28;19912;-85
2021/10/18 07:35:19;;;;;;;;;;;;;;;;;;5071738;28;19920;-85
2021/10/18 07:37:52;;;;;;;;;;;;;;;;;;5071300;28;19977;-86
2021/10/18 07:40:18;;;;;;;;;;;;;;;;;;5071446;28;19916;-85
2021/10/18 07:42:43;;;;;;;;;;;;;;;;;;5088349;28;19913;-86
2021/10/18 07:45:09;;;;;;;;;;;;;;;;;;5071467;28;19931;-86
2021/10/18 07:47:35;;;;;;;;;;;;;;;;;;5070811;28;19924;-86
2021/10/18 07:50:01;;;;;;;;;;;;;;;;;;5071539;28;19917;-86
2021/10/18 07:52:26;;;;;;;;;;;;;;;;;;5070920;28;19917;-86
2021/10/18 07:54:54;;;;;;;;;;;;;;;;;;5088427;28;20003;-83
2021/10/18 07:57:19;;;;;;;;;;;;;;;;;;5070849;28;19920;-82
2021/10/18 07:59:45;;;;;;;;;;;;;;;;;;5087996;28;19919;-81
2021/10/18 08:02:10;;;;;;;;;;;;;;;;;;5070893;28;20003;-84
2021/10/18 08:04:36;;;;;;;;;;;;;;;;;;5071135;28;19962;-83
2021/10/18 08:07:01;;;;;;;;;;;;;;;;;;5087573;28;19940;-82
2021/10/18 08:09:26;;;;;;;;;;;;;;;;;;5070774;28;19917;-84
2021/10/18 08:11:53;;;;;;;;;;;;;;;;;;5088474;28;20011;-86
2021/10/18 08:14:19;;;;;;;;;;;;;;;;;;5071216;28;19917;-84
2021/10/18 08:16:45;;;;;;;;;;;;;;;;;;5071580;28;19917;-90
2021/10/18 08:19:13;;;;;;;;;;;;;;;;;;5071518;28;19917;-90
2021/10/18 08:21:40;;;;;;;;;;;;;;;;;;5072461;28;19913;-88
2021/10/18 08:24:05;;;;;;;;;;;;;;;;;;5072271;28;20015;-91
2021/10/18 08:26:31;;;;;;;;;;;;;;;;;;5072057;28;19958;-90
2021/10/18 08:28:56;;;;;;;;;;;;;;;;;;5072223;28;19919;-90
2021/10/18 08:31:22;;;;;;;;;;;;;;;;;;5061027;28;19912;-90
2021/10/18 08:33:47;;;;;;;;;;;;;;;;;;5079720;28;19912;-90
2021/10/18 08:36:14;;;;;;;;;;;;;;;;;;5062920;28;19912;-89
2021/10/18 08:38:47;;;;;;;;;;;;;;;;;;5062842;28;19927;-90
2021/10/18 08:41:37;;;;;;;;;;;;;;;;;;5063528;28;19916;-90
2021/10/18 08:44:17;;;;;;;;;;;;;;;;;;5065491;28;20494;-90
2021/10/18 08:46:52;;;;;;;;;;;;;;;;;;5064688;28;20014;-89
2021/10/18 08:49:18;;;;;;;;;;;;;;;;;;5079409;28;19919;-90
2021/10/18 08:51:46;;;;;;;;;;;;;;;;;;5062929;28;19912;-90
2021/10/18 08:54:16;;;;;;;;;;;;;;;;;;5062266;28;19916;-90
2021/10/18 08:56:41;;;;;;;;;;;;;;;;;;5078809;28;20010;-90
2021/10/18 08:59:09;;;;;;;;;;;;;;;;;;5062082;28;20011;-90
2021/10/18 09:02:02;;;;;;;;;;;;;;;;;;5079220;28;19916;-90
2021/10/18 09:04:28;;;;;;;;;;;;;;;;;;5094539;28;20002;-89
2021/10/18 09:06:57;;;;;;;;;;;;;;;;;;5079237;28;19912;-90
2021/10/18 09:09:26;;;;;;;;;;;;;;;;;;5062424;28;20051;-90
2021/10/18 09:11:56;;;;;;;;;;;;;;;;;;5079715;28;19942;-90
2021/10/18 09:14:25;;;;;;;;;;;;;;;;;;5062128;28;20342;-90
2021/10/18 09:16:51;;;;;;;;;;;;;;;;;;5078540;28;19917;-90
2021/10/18 09:19:26;;;;;;;;;;;;;;;;;;5061788;28;19912;-91
2021/10/18 09:21:53;;;;;;;;;;;;;;;;;;5061866;28;19946;-90
2021/10/18 09:24:41;;;;;;;;;;;;;;;;;;5062110;28;19912;-90
2021/10/18 09:27:09;;;;;;;;;;;;;;;;;;5061974;28;19912;-90
2021/10/18 09:29:40;;;;;;;;;;;;;;;;;;5061700;28;19912;-90
2021/10/18 09:32:08;;;;;;;;;;;;;;;;;;5079017;28;19963;-91
2021/10/18 09:34:34;;;;;;;;;;;;;;;;;;5095364;28;19916;-91
2021/10/18 09:37:12;;;;;;;;;;;;;;;;;;5078589;28;19916;-91
2021/10/18 09:39:56;;;;;;;;;;;;;;;;;;5061635;28;20015;-91
2021/10/18 09:42:27;;;;;;;;;;;;;;;;;;5045880;28;19966;-91
2021/10/18 09:45:20;;;;;;;;;;;;;;;;;;5058477;28;19956;-90
2021/10/18 10:52:58;;;;;;;;;;;;;;;;;;5079592;28;19951;-89
2021/10/18 10:55:24;;;;;;;;;;;;;;;;;;5054131;28;19912;-89
2021/10/18 10:57:52;;;;;;;;;;;;;;;;;;5065909;28;19966;-89
2021/10/18 11:00:37;;;;;;;;;;;;;;;;;;5097233;28;19912;-88
2021/10/18 11:03:23;;;;;;;;;;;;;;;;;;5096650;28;19998;-89
2021/10/18 11:05:59;;;;;;;;;;;;;;;;;;5094018;28;19961;-87
2021/10/18 11:08:31;;;;;;;;;;;;;;;;;;5092667;28;19916;-86
2021/10/18 11:11:19;;;;;;;;;;;;;;;;;;5059433;28;19912;-88
2021/10/18 11:13:54;;;;;;;;;;;;;;;;;;5070959;28;20005;-89
2021/10/18 11:16:25;;;;;;;;;;;;;;;;;;5053939;28;20630;-89
2021/10/18 11:18:53;;;;;;;;;;;;;;;;;;5073814;28;19964;-88
2021/10/18 11:21:23;;;;;;;;;;;;;;;;;;5051049;28;19917;-89
2021/10/18 11:23:58;;;;;;;;;;;;;;;;;;5054916;28;19923;-89
2021/10/18 11:26:25;;;;;;;;;;;;;;;;;;5072684;28;19919;-89
2021/10/18 11:29:00;;;;;;;;;;;;;;;;;;5073442;28;19947;-90
2021/10/18 11:31:31;;;;;;;;;;;;;;;;;;5060270;28;19920;-89
2021/10/18 11:34:04;;;;;;;;;;;;;;;;;;5066310;28;19916;-90
2021/10/18 11:36:32;;;;;;;;;;;;;;;;;;5045877;28;19928;-90
2021/10/18 11:39:13;;;;;;;;;;;;;;;;;;5060786;28;19920;-90
2021/10/18 11:42:00;;;;;;;;;;;;;;;;;;5055467;28;19923;-90
2021/10/18 11:44:44;;;;;;;;;;;;;;;;;;5067229;28;19916;-89
2021/10/18 11:47:31;;;;;;;;;;;;;;;;;;5058553;28;20362;-89
2021/10/18 11:50:09;;;;;;;;;;;;;;;;;;5075381;28;19912;-89
2021/10/18 11:52:38;;;;;;;;;;;;;;;;;;5072416;28;19982;-89
2021/10/18 11:55:08;;;;;;;;;;;;;;;;;;5055742;28;19954;-89
2021/10/18 11:57:34;;;;;;;;;;;;;;;;;;5039696;28;19923;-89
2021/10/18 12:00:00;;;;;;;;;;;;;;;;;;5083288;28;19919;-87
2021/10/18 12:02:28;;;;;;;;;;;;;;;;;;5079568;28;19918;-89
2021/10/18 12:04:56;;;;;;;;;;;;;;;;;;5083904;28;19961;-89
2021/10/18 12:07:42;;;;;;;;;;;;;;;;;;5059672;28;19931;-89
2021/10/18 12:10:16;;;;;;;;;;;;;;;;;;5058800;28;19919;-89
2021/10/18 12:13:01;;;;;;;;;;;;;;;;;;5069884;28;19920;-89
2021/10/18 12:15:27;;;;;;;;;;;;;;;;;;5096991;28;19918;-89
2021/10/18 12:17:52;;;;;;;;;;;;;;;;;;5064532;28;19920;-88
2021/10/18 12:20:20;;;;;;;;;;;;;;;;;;5074770;28;19923;-88
2021/10/18 12:23:00;;;;;;;;;;;;;;;;;;5057940;28;19912;-89
2021/10/18 12:25:25;;;;;;;;;;;;;;;;;;5089081;28;19924;-88
2021/10/18 12:27:53;;;;;;;;;;;;;;;;;;5076166;28;19916;-89
2021/10/18 12:30:47;;;;;;;;;;;;;;;;;;5055725;28;19927;-89
2021/10/18 12:33:13;;;;;;;;;;;;;;;;;;5054034;28;20362;-89
2021/10/18 12:35:39;;;;;;;;;;;;;;;;;;5055050;28;20374;-88
2021/10/18 12:38:12;;;;;;;;;;;;;;;;;;5041594;28;19920;-89
2021/10/18 12:40:38;;;;;;;;;;;;;;;;;;5056597;28;19916;-88
2021/10/18 12:43:07;;;;;;;;;;;;;;;;;;5071461;28;19908;-89
2021/10/18 12:45:35;;;;;;;;;;;;;;;;;;5073030;28;19979;-88
2021/10/18 12:48:02;;;;;;;;;;;;;;;;;;5054749;28;19919;-89
2021/10/18 12:50:30;;;;;;;;;;;;;;;;;;5054413;28;19924;-89
2021/10/18 12:53:02;;;;;;;;;;;;;;;;;;5058833;28;20450;-88
2021/10/18 12:55:31;;;;;;;;;;;;;;;;;;5043658;28;20003;-89
2021/10/18 12:57:57;;;;;;;;;;;;;;;;;;5039107;28;20396;-89
2021/10/18 13:00:31;;;;;;;;;;;;;;;;;;5053837;28;19923;-89
2021/10/18 13:03:08;;;;;;;;;;;;;;;;;;5054957;28;20025;-89
2021/10/18 13:05:37;;;;;;;;;;;;;;;;;;5056623;28;19958;-89
2021/10/18 13:08:02;;;;;;;;;;;;;;;;;;5058139;28;20022;-89
2021/10/18 13:10:31;;;;;;;;;;;;;;;;;;5073367;28;20385;-89
2021/10/18 13:12:57;;;;;;;;;;;;;;;;;;5037920;28;19927;-89
2021/10/18 13:15:22;;;;;;;;;;;;;;;;;;5064453;28;19912;-88
2021/10/18 13:17:48;;;;;;;;;;;;;;;;;;5065011;28;19942;-89
2021/10/18 13:20:16;;;;;;;;;;;;;;;;;;5063136;28;19921;-89
2021/10/18 13:22:42;;;;;;;;;;;;;;;;;;5041264;28;19956;-89
2021/10/18 13:25:07;;;;;;;;;;;;;;;;;;5062840;28;19955;-89
2021/10/18 13:27:36;;;;;;;;;;;;;;;;;;5049136;28;19917;-88
2021/10/18 13:30:02;;;;;;;;;;;;;;;;;;5058048;28;19916;-88
2021/10/18 13:32:31;;;;;;;;;;;;;;;;;;5058105;28;19920;-87
2021/10/18 13:34:58;;;;;;;;;;;;;;;;;;5074927;28;20003;-89
2021/10/18 13:37:25;;;;;;;;;;;;;;;;;;5051355;28;19923;-89
2021/10/18 13:39:52;;;;;;;;;;;;;;;;;;5056426;28;19912;-88
2021/10/18 13:42:19;;;;;;;;;;;;;;;;;;5061410;28;19912;-89
2021/10/18 13:44:46;;;;;;;;;;;;;;;;;;5058203;28;19913;-88
2021/10/18 13:47:11;;;;;;;;;;;;;;;;;;5057656;28;20036;-88
2021/10/18 13:49:40;;;;;;;;;;;;;;;;;;5040965;28;19970;-88
2021/10/18 13:52:08;;;;;;;;;;;;;;;;;;5058159;28;19917;-89
2021/10/18 13:54:36;;;;;;;;;;;;;;;;;;5064856;28;19916;-89
2021/10/18 13:57:04;;;;;;;;;;;;;;;;;;5061033;28;19923;-89
2021/10/18 13:59:31;;;;;;;;;;;;;;;;;;5045776;28;20371;-88
2021/10/18 14:01:57;;;;;;;;;;;;;;;;;;5057290;28;19923;-85
2021/10/18 14:04:22;;;;;;;;;;;;;;;;;;5056375;28;20003;-85
2021/10/18 14:06:49;;;;;;;;;;;;;;;;;;5056535;28;19951;-82
2021/10/18 14:09:14;;;;;;;;;;;;;;;;;;5040359;28;19916;-82
2021/10/18 14:11:40;;;;;;;;;;;;;;;;;;5073024;28;19974;-84
2021/10/18 14:14:05;;;;;;;;;;;;;;;;;;5073637;28;19917;-84
2021/10/18 14:16:31;;;;;;;;;;;;;;;;;;5062807;28;19999;-82
2021/10/18 14:18:57;;;;;;;;;;;;;;;;;;5060890;28;19920;-82
2021/10/18 14:21:22;;;;;;;;;;;;;;;;;;5040637;28;19916;-84
2021/10/18 14:23:47;;;;;;;;;;;;;;;;;;5039326;28;19919;-82
2021/10/18 14:26:13;;;;;;;;;;;;;;;;;;5055695;28;20286;-82
2021/10/18 14:28:38;;;;;;;;;;;;;;;;;;5073936;28;19986;-82
2021/10/18 14:31:04;;;;;;;;;;;;;;;;;;5043640;28;20077;-82
2021/10/18 14:33:29;;;;;;;;;;;;;;;;;;5058941;28;20327;-81
2021/10/18 14:35:54;;;;;;;;;;;;;;;;;;5056125;28;20021;-81
2021/10/18 14:38:20;;;;;;;;;;;;;;;;;;5055548;28;20279;-81
2021/10/18 14:40:47;;;;;;;;;;;;;;;;;;5040049;28;19982;-81
2021/10/18 14:43:12;;;;;;;;;;;;;;;;;;5054806;28;20400;-81
2021/10/18 14:45:38;;;;;;;;;;;;;;;;;;5055502;28;19979;-81
2021/10/18 14:48:03;;;;;;;;;;;;;;;;;;5071657;28;19958;-81
2021/10/18 14:50:28;;;;;;;;;;;;;;;;;;5079558;28;20014;-81
2021/10/18 14:52:54;;;;;;;;;;;;;;;;;;5057055;28;19919;-81
2021/10/18 14:55:20;;;;;;;;;;;;;;;;;;5066112;28;19986;-81
2021/10/18 14:57:45;;;;;;;;;;;;;;;;;;5075251;28;20277;-81
2021/10/18 15:00:10;;;;;;;;;;;;;;;;;;5043306;28;19963;-82
2021/10/18 15:02:36;;;;;;;;;;;;;;;;;;5059947;28;19916;-82
2021/10/18 15:05:02;;;;;;;;;;;;;;;;;;5075223;28;19995;-81
2021/10/18 15:07:29;;;;;;;;;;;;;;;;;;5071698;28;20438;-81
2021/10/18 15:09:54;;;;;;;;;;;;;;;;;;5077188;28;20289;-81
2021/10/18 15:12:22;;;;;;;;;;;;;;;;;;5045241;28;19920;-81
2021/10/18 15:14:47;;;;;;;;;;;;;;;;;;5056025;28;19923;-81
2021/10/18 15:17:12;;;;;;;;;;;;;;;;;;5071182;28;20058;-82
2021/10/18 15:19:38;;;;;;;;;;;;;;;;;;5069922;28;19917;-82
2021/10/18 15:22:03;;;;;;;;;;;;;;;;;;5038175;28;19913;-82
2021/10/18 15:24:29;;;;;;;;;;;;;;;;;;5037580;28;20273;-82
2021/10/18 15:26:54;;;;;;;;;;;;;;;;;;5039133;28;19970;-81
2021/10/18 15:29:20;;;;;;;;;;;;;;;;;;5071918;28;20378;-82
2021/10/18 15:31:46;;;;;;;;;;;;;;;;;;5070915;28;19951;-81
2021/10/18 15:34:11;;;;;;;;;;;;;;;;;;5083274;28;19973;-81
2021/10/18 15:36:36;;;;;;;;;;;;;;;;;;5072754;28;19912;-81
2021/10/18 15:39:02;;;;;;;;;;;;;;;;;;5054003;28;20308;-81
2021/10/18 15:41:27;;;;;;;;;;;;;;;;;;5071312;28;19920;-81
2021/10/18 15:43:53;;;;;;;;;;;;;;;;;;5054778;28;19912;-81
2021/10/18 15:46:18;;;;;;;;;;;;;;;;;;5056750;28;19925;-81
2021/10/18 15:48:43;;;;;;;;;;;;;;;;;;5070892;28;19974;-80
2021/10/18 15:51:11;;;;;;;;;;;;;;;;;;5070963;28;19913;-80
2021/10/18 15:53:36;;;;;;;;;;;;;;;;;;5071312;28;19931;-80
2021/10/18 15:56:02;;;;;;;;;;;;;;;;;;5067400;28;19923;-80
2021/10/18 15:58:27;;;;;;;;;;;;;;;;;;5056602;28;20398;-80
2021/10/18 16:00:55;;;;;;;;;;;;;;;;;;5073834;28;20212;-80
2021/10/18 16:03:20;;;;;;;;;;;;;;;;;;5091332;28;19985;-81
2021/10/18 16:05:45;;;;;;;;;;;;;;;;;;5071971;28;20435;-81
2021/10/18 16:08:10;;;;;;;;;;;;;;;;;;5037518;28;19922;-80
2021/10/18 16:10:36;;;;;;;;;;;;;;;;;;5037491;28;19920;-80
2021/10/18 16:13:01;;;;;;;;;;;;;;;;;;5062455;28;19965;-81
2021/10/18 16:15:27;;;;;;;;;;;;;;;;;;5068165;28;19923;-80
2021/10/18 16:17:53;;;;;;;;;;;;;;;;;;5065930;28;19916;-80
2021/10/18 16:20:19;;;;;;;;;;;;;;;;;;5081306;28;19920;-80
2021/10/18 16:22:45;;;;;;;;;;;;;;;;;;5111296;28;20022;-80
2021/10/18 16:25:10;;;;;;;;;;;;;;;;;;5067633;28;20347;-80
2021/10/18 16:27:36;;;;;;;;;;;;;;;;;;5057416;28;20352;-80
2021/10/18 16:30:01;;;;;;;;;;;;;;;;;;5073571;28;19916;-81
2021/10/18 16:32:26;;;;;;;;;;;;;;;;;;5080968;28;20006;-81
2021/10/18 16:34:52;;;;;;;;;;;;;;;;;;5087969;28;19974;-79
2021/10/18 16:37:17;;;;;;;;;;;;;;;;;;5066933;28;20274;-80
2021/10/18 16:39:43;;;;;;;;;;;;;;;;;;5060287;28;20358;-80
2021/10/18 16:42:08;;;;;;;;;;;;;;;;;;5064555;28;19965;-80
2021/10/18 16:44:36;;;;;;;;;;;;;;;;;;5070048;28;20002;-80
2021/10/18 16:47:01;;;;;;;;;;;;;;;;;;5087504;28;19927;-79
2021/10/18 16:49:26;;;;;;;;;;;;;;;;;;5064300;28;19920;-80
2021/10/18 16:51:52;;;;;;;;;;;;;;;;;;5058466;28;19919;-80
2021/10/18 16:54:20;;;;;;;;;;;;;;;;;;5091990;28;20289;-80
2021/10/18 16:56:46;;;;;;;;;;;;;;;;;;5060913;28;19952;-79
2021/10/18 16:59:12;;;;;;;;;;;;;;;;;;5082618;28;20008;-79
2021/10/18 17:01:37;;;;;;;;;;;;;;;;;;5044411;28;19967;-80
2021/10/18 17:04:03;;;;;;;;;;;;;;;;;;5074157;28;20345;-79
2021/10/18 17:06:28;;;;;;;;;;;;;;;;;;5057443;28;19912;-79
2021/10/18 17:08:53;;;;;;;;;;;;;;;;;;5055114;28;19916;-80
2021/10/18 17:11:23;;;;;;;;;;;;;;;;;;5057646;28;19965;-79
2021/10/18 17:13:49;;;;;;;;;;;;;;;;;;5081113;28;20423;-82
2021/10/18 17:16:14;;;;;;;;;;;;;;;;;;5077550;28;19965;-82
2021/10/18 17:18:39;;;;;;;;;;;;;;;;;;5076320;28;19936;-80
2021/10/18 17:21:06;;;;;;;;;;;;;;;;;;5093826;28;19931;-80
2021/10/18 17:23:32;;;;;;;;;;;;;;;;;;5077621;28;20014;-79
2021/10/18 17:25:57;;;;;;;;;;;;;;;;;;5076848;28;19954;-80
2021/10/18 17:28:22;;;;;;;;;;;;;;;;;;5089912;28;20140;-81
2021/10/18 17:30:48;;;;;;;;;;;;;;;;;;5058451;28;19963;-81
2021/10/18 17:33:13;;;;;;;;;;;;;;;;;;5060211;28;20375;-84
2021/10/18 17:35:39;;;;;;;;;;;;;;;;;;5064349;28;19916;-84
2021/10/18 17:38:05;;;;;;;;;;;;;;;;;;5073888;28;20286;-83
2021/10/18 17:40:33;;;;;;;;;;;;;;;;;;5058959;28;19985;-83
2021/10/18 17:43:00;;;;;;;;;;;;;;;;;;5056997;28;19999;-85
2021/10/18 17:45:26;;;;;;;;;;;;;;;;;;5077081;28;19951;-85
2021/10/18 17:47:51;;;;;;;;;;;;;;;;;;5064402;28;19959;-83
2021/10/18 17:50:20;;;;;;;;;;;;;;;;;;5058079;28;20014;-89